sensor_id;sensor_type;location;lat;lon;timestamp;temperature;humidity
68098;DHT22;54886;47.036;15.466;2022-09-17T00:01:57;14.32;84.65
68098;DHT22;54886;47.036;15.466;2022-09-17T00:04:22;14.35;83.53
68098;DHT22;54886;47.036;15.466;2022-09-17T00:06:48;14.35;83.02
68098;DHT22;54886;47.036;15.466;2022-09-17T00:09:13;14.35;84.63
68098;DHT22;54886;47.036;15.466;2022-09-17T00:11:41;14.37;84.36
68098;DHT22;54886;47.036;15.466;2022-09-17T00:14:13;14.37;85.48
68098;DHT22;54886;47.036;15.466;2022-09-17T00:16:41;14.37;85.57
68098;DHT22;54886;47.036;15.466;2022-09-17T00:19:12;14.38;85.52
68098;DHT22;54886;47.036;15.466;2022-09-17T00:21:39;14.37;85.82
68098;DHT22;54886;47.036;15.466;2022-09-17T00:24:05;14.37;85.02
68098;DHT22;54886;47.036;15.466;2022-09-17T00:26:31;14.34;85.66
68098;DHT22;54886;47.036;15.466;2022-09-17T00:28:58;14.35;85.34
68098;DHT22;54886;47.036;15.466;2022-09-17T00:31:24;14.34;85.23
68098;DHT22;54886;47.036;15.466;2022-09-17T00:33:50;14.35;85.69
68098;DHT22;54886;47.036;15.466;2022-09-17T00:36:15;14.30;85.76
68098;DHT22;54886;47.036;15.466;2022-09-17T00:38:41;14.32;85.43
68098;DHT22;54886;47.036;15.466;2022-09-17T00:41:08;14.25;85.59
68098;DHT22;54886;47.036;15.466;2022-09-17T00:43:46;14.28;85.60
68098;DHT22;54886;47.036;15.466;2022-09-17T00:46:37;14.25;85.14
68098;DHT22;54886;47.036;15.466;2022-09-17T00:49:14;14.27;85.86
68098;DHT22;54886;47.036;15.466;2022-09-17T00:54:22;14.27;85.98
68098;DHT22;54886;47.036;15.466;2022-09-17T00:56:48;14.23;86.01
68098;DHT22;54886;47.036;15.466;2022-09-17T00:59:16;14.23;86.02
68098;DHT22;54886;47.036;15.466;2022-09-17T01:01:42;14.23;85.76
68098;DHT22;54886;47.036;15.466;2022-09-17T01:04:18;14.24;85.21
68098;DHT22;54886;47.036;15.466;2022-09-17T01:23:25;14.24;86.12
68098;DHT22;54886;47.036;15.466;2022-09-17T01:26:05;14.25;85.25
68098;DHT22;54886;47.036;15.466;2022-09-17T01:42:06;14.21;85.75
68098;DHT22;54886;47.036;15.466;2022-09-17T01:45:37;14.18;85.52
68098;DHT22;54886;47.036;15.466;2022-09-17T01:47:41;14.23;85.64
68098;DHT22;54886;47.036;15.466;2022-09-17T01:50:11;14.18;85.68
68098;DHT22;54886;47.036;15.466;2022-09-17T01:52:40;14.20;85.71
68098;DHT22;54886;47.036;15.466;2022-09-17T01:55:10;14.21;85.20
68098;DHT22;54886;47.036;15.466;2022-09-17T01:57:40;14.18;85.19
68098;DHT22;54886;47.036;15.466;2022-09-17T02:00:12;14.17;85.93
68098;DHT22;54886;47.036;15.466;2022-09-17T02:02:39;14.20;86.14
68098;DHT22;54886;47.036;15.466;2022-09-17T02:05:09;14.20;84.51
68098;DHT22;54886;47.036;15.466;2022-09-17T02:08:02;14.23;84.62
68098;DHT22;54886;47.036;15.466;2022-09-17T02:10:33;14.24;85.71
68098;DHT22;54886;47.036;15.466;2022-09-17T02:13:01;14.21;86.12
68098;DHT22;54886;47.036;15.466;2022-09-17T02:15:38;14.23;85.55
68098;DHT22;54886;47.036;15.466;2022-09-17T02:18:19;14.24;85.73
68098;DHT22;54886;47.036;15.466;2022-09-17T02:20:58;14.24;86.12
68098;DHT22;54886;47.036;15.466;2022-09-17T02:23:30;14.24;86.17
68098;DHT22;54886;47.036;15.466;2022-09-17T02:26:06;14.24;86.11
68098;DHT22;54886;47.036;15.466;2022-09-17T02:28:41;14.23;86.04
68098;DHT22;54886;47.036;15.466;2022-09-17T02:31:07;14.25;85.76
68098;DHT22;54886;47.036;15.466;2022-09-17T02:33:34;14.21;86.20
68098;DHT22;54886;47.036;15.466;2022-09-17T02:36:01;14.20;86.28
68098;DHT22;54886;47.036;15.466;2022-09-17T02:38:29;14.20;86.10
68098;DHT22;54886;47.036;15.466;2022-09-17T02:41:16;14.23;84.96
68098;DHT22;54886;47.036;15.466;2022-09-17T02:54:38;14.17;85.98
68098;DHT22;54886;47.036;15.466;2022-09-17T02:57:28;14.14;86.05
68098;DHT22;54886;47.036;15.466;2022-09-17T03:02:27;14.14;85.93
68098;DHT22;54886;47.036;15.466;2022-09-17T03:04:54;14.14;86.19
68098;DHT22;54886;47.036;15.466;2022-09-17T03:07:21;14.16;86.01
68098;DHT22;54886;47.036;15.466;2022-09-17T03:09:47;14.14;86.30
68098;DHT22;54886;47.036;15.466;2022-09-17T03:12:13;14.13;86.19
68098;DHT22;54886;47.036;15.466;2022-09-17T03:14:39;14.13;86.22
68098;DHT22;54886;47.036;15.466;2022-09-17T03:17:04;14.16;85.46
68098;DHT22;54886;47.036;15.466;2022-09-17T03:19:30;14.16;85.92
68098;DHT22;54886;47.036;15.466;2022-09-17T03:21:55;14.17;86.31
68098;DHT22;54886;47.036;15.466;2022-09-17T03:24:21;14.17;86.44
68098;DHT22;54886;47.036;15.466;2022-09-17T03:26:46;14.16;86.26
68098;DHT22;54886;47.036;15.466;2022-09-17T03:29:13;14.13;86.10
68098;DHT22;54886;47.036;15.466;2022-09-17T03:31:39;14.13;85.85
68098;DHT22;54886;47.036;15.466;2022-09-17T03:34:05;14.17;86.28
68098;DHT22;54886;47.036;15.466;2022-09-17T03:36:30;14.13;86.62
68098;DHT22;54886;47.036;15.466;2022-09-17T03:38:57;14.10;86.58
68098;DHT22;54886;47.036;15.466;2022-09-17T03:41:24;14.13;86.12
68098;DHT22;54886;47.036;15.466;2022-09-17T03:43:49;14.14;85.83
68098;DHT22;54886;47.036;15.466;2022-09-17T03:46:16;14.16;84.55
68098;DHT22;54886;47.036;15.466;2022-09-17T03:48:41;14.18;85.37
68098;DHT22;54886;47.036;15.466;2022-09-17T03:51:07;14.13;86.04
68098;DHT22;54886;47.036;15.466;2022-09-17T03:53:32;14.17;83.47
68098;DHT22;54886;47.036;15.466;2022-09-17T03:55:59;14.17;84.57
68098;DHT22;54886;47.036;15.466;2022-09-17T03:58:25;14.16;84.65
68098;DHT22;54886;47.036;15.466;2022-09-17T04:00:51;14.16;85.15
68098;DHT22;54886;47.036;15.466;2022-09-17T04:03:18;14.18;85.20
68098;DHT22;54886;47.036;15.466;2022-09-17T04:05:43;14.17;85.01
68098;DHT22;54886;47.036;15.466;2022-09-17T04:08:09;14.17;84.62
68098;DHT22;54886;47.036;15.466;2022-09-17T04:10:34;14.18;83.77
68098;DHT22;54886;47.036;15.466;2022-09-17T04:13:00;14.18;84.92
68098;DHT22;54886;47.036;15.466;2022-09-17T04:15:25;14.17;85.23
68098;DHT22;54886;47.036;15.466;2022-09-17T04:17:54;14.13;85.74
68098;DHT22;54886;47.036;15.466;2022-09-17T04:20:20;14.14;85.32
68098;DHT22;54886;47.036;15.466;2022-09-17T04:22:45;14.13;83.30
68098;DHT22;54886;47.036;15.466;2022-09-17T04:25:10;14.14;84.74
68098;DHT22;54886;47.036;15.466;2022-09-17T04:27:36;14.10;85.36
68098;DHT22;54886;47.036;15.466;2022-09-17T04:30:01;14.12;84.86
68098;DHT22;54886;47.036;15.466;2022-09-17T04:32:27;14.09;85.76
68098;DHT22;54886;47.036;15.466;2022-09-17T04:34:52;14.10;83.37
68098;DHT22;54886;47.036;15.466;2022-09-17T04:37:18;14.09;83.27
68098;DHT22;54886;47.036;15.466;2022-09-17T04:39:44;14.09;85.26
68098;DHT22;54886;47.036;15.466;2022-09-17T04:42:09;14.06;84.48
68098;DHT22;54886;47.036;15.466;2022-09-17T04:44:34;14.06;84.22
68098;DHT22;54886;47.036;15.466;2022-09-17T04:47:00;14.10;84.27
68098;DHT22;54886;47.036;15.466;2022-09-17T04:49:25;14.06;85.88
68098;DHT22;54886;47.036;15.466;2022-09-17T04:51:54;14.09;85.76
68098;DHT22;54886;47.036;15.466;2022-09-17T04:54:19;14.07;85.97
68098;DHT22;54886;47.036;15.466;2022-09-17T04:56:44;14.09;86.13
68098;DHT22;54886;47.036;15.466;2022-09-17T04:59:10;14.07;83.90
68098;DHT22;54886;47.036;15.466;2022-09-17T05:01:35;14.09;84.67
68098;DHT22;54886;47.036;15.466;2022-09-17T05:04:00;14.09;83.75
68098;DHT22;54886;47.036;15.466;2022-09-17T05:06:26;14.09;83.96
68098;DHT22;54886;47.036;15.466;2022-09-17T05:08:51;14.10;83.21
68098;DHT22;54886;47.036;15.466;2022-09-17T05:11:17;14.12;85.18
68098;DHT22;54886;47.036;15.466;2022-09-17T05:13:42;14.09;86.08
68098;DHT22;54886;47.036;15.466;2022-09-17T05:16:08;14.10;85.62
68098;DHT22;54886;47.036;15.466;2022-09-17T05:18:33;14.06;85.53
68098;DHT22;54886;47.036;15.466;2022-09-17T05:20:58;14.07;85.00
68098;DHT22;54886;47.036;15.466;2022-09-17T05:23:24;14.04;84.33
68098;DHT22;54886;47.036;15.466;2022-09-17T05:25:49;14.06;84.98
68098;DHT22;54886;47.036;15.466;2022-09-17T05:28:15;14.06;84.23
68098;DHT22;54886;47.036;15.466;2022-09-17T05:30:40;14.03;82.52
68098;DHT22;54886;47.036;15.466;2022-09-17T05:33:07;14.00;85.20
68098;DHT22;54886;47.036;15.466;2022-09-17T05:35:34;14.02;85.38
68098;DHT22;54886;47.036;15.466;2022-09-17T05:38:04;13.97;84.95
68098;DHT22;54886;47.036;15.466;2022-09-17T05:40:32;13.97;84.71
68098;DHT22;54886;47.036;15.466;2022-09-17T05:43:01;13.99;82.54
68098;DHT22;54886;47.036;15.466;2022-09-17T05:45:28;13.99;82.92
68098;DHT22;54886;47.036;15.466;2022-09-17T05:47:58;14.00;84.85
68098;DHT22;54886;47.036;15.466;2022-09-17T05:50:24;14.02;84.79
68098;DHT22;54886;47.036;15.466;2022-09-17T05:52:51;14.00;84.73
68098;DHT22;54886;47.036;15.466;2022-09-17T05:55:18;13.99;85.74
68098;DHT22;54886;47.036;15.466;2022-09-17T05:57:44;13.99;85.52
68098;DHT22;54886;47.036;15.466;2022-09-17T06:00:10;14.02;85.42
68098;DHT22;54886;47.036;15.466;2022-09-17T06:02:36;14.02;84.83
68098;DHT22;54886;47.036;15.466;2022-09-17T06:05:02;14.02;85.66
68098;DHT22;54886;47.036;15.466;2022-09-17T06:07:28;14.02;86.27
68098;DHT22;54886;47.036;15.466;2022-09-17T06:09:53;14.03;86.04
68098;DHT22;54886;47.036;15.466;2022-09-17T06:12:19;14.00;86.26
68098;DHT22;54886;47.036;15.466;2022-09-17T06:14:44;13.99;83.91
68098;DHT22;54886;47.036;15.466;2022-09-17T06:17:10;14.02;83.63
68098;DHT22;54886;47.036;15.466;2022-09-17T06:19:35;14.00;85.57
68098;DHT22;54886;47.036;15.466;2022-09-17T06:22:01;14.02;85.86
68098;DHT22;54886;47.036;15.466;2022-09-17T06:24:26;14.00;86.86
68098;DHT22;54886;47.036;15.466;2022-09-17T06:26:52;14.03;86.50
68098;DHT22;54886;47.036;15.466;2022-09-17T06:29:19;13.97;86.85
68098;DHT22;54886;47.036;15.466;2022-09-17T06:31:47;14.02;86.38
68098;DHT22;54886;47.036;15.466;2022-09-17T06:34:12;14.03;86.59
68098;DHT22;54886;47.036;15.466;2022-09-17T06:36:38;14.03;86.11
68098;DHT22;54886;47.036;15.466;2022-09-17T06:39:03;14.03;84.03
68098;DHT22;54886;47.036;15.466;2022-09-17T06:41:29;14.06;85.46
68098;DHT22;54886;47.036;15.466;2022-09-17T06:43:55;14.04;85.18
68098;DHT22;54886;47.036;15.466;2022-09-17T06:46:21;14.07;84.34
68098;DHT22;54886;47.036;15.466;2022-09-17T06:48:46;14.07;86.05
68098;DHT22;54886;47.036;15.466;2022-09-17T06:51:12;14.06;86.18
68098;DHT22;54886;47.036;15.466;2022-09-17T06:53:39;14.09;86.14
68098;DHT22;54886;47.036;15.466;2022-09-17T06:56:06;14.04;86.19
68098;DHT22;54886;47.036;15.466;2022-09-17T06:58:34;14.04;85.87
68098;DHT22;54886;47.036;15.466;2022-09-17T07:01:03;14.10;85.06
68098;DHT22;54886;47.036;15.466;2022-09-17T07:03:30;14.07;86.84
68098;DHT22;54886;47.036;15.466;2022-09-17T07:05:56;14.07;86.49
68098;DHT22;54886;47.036;15.466;2022-09-17T07:08:22;14.09;86.82
68098;DHT22;54886;47.036;15.466;2022-09-17T07:10:48;14.12;86.65
68098;DHT22;54886;47.036;15.466;2022-09-17T07:13:14;14.10;86.53
68098;DHT22;54886;47.036;15.466;2022-09-17T07:15:39;14.10;85.99
68098;DHT22;54886;47.036;15.466;2022-09-17T07:18:09;14.12;86.20
68098;DHT22;54886;47.036;15.466;2022-09-17T07:20:34;14.06;86.65
68098;DHT22;54886;47.036;15.466;2022-09-17T07:23:00;14.10;86.52
68098;DHT22;54886;47.036;15.466;2022-09-17T07:25:25;14.13;86.64
68098;DHT22;54886;47.036;15.466;2022-09-17T07:27:51;14.10;86.73
68098;DHT22;54886;47.036;15.466;2022-09-17T07:30:18;14.09;87.01
68098;DHT22;54886;47.036;15.466;2022-09-17T07:32:43;14.10;86.21
68098;DHT22;54886;47.036;15.466;2022-09-17T07:35:09;14.12;85.85
68098;DHT22;54886;47.036;15.466;2022-09-17T07:37:34;14.13;85.57
68098;DHT22;54886;47.036;15.466;2022-09-17T07:40:00;14.12;85.95
68098;DHT22;54886;47.036;15.466;2022-09-17T07:42:25;14.12;85.46
68098;DHT22;54886;47.036;15.466;2022-09-17T07:44:52;14.12;85.17
68098;DHT22;54886;47.036;15.466;2022-09-17T07:47:17;14.12;85.76
68098;DHT22;54886;47.036;15.466;2022-09-17T07:49:43;14.13;85.54
68098;DHT22;54886;47.036;15.466;2022-09-17T07:52:08;14.13;85.09
68098;DHT22;54886;47.036;15.466;2022-09-17T07:54:34;14.13;85.72
68098;DHT22;54886;47.036;15.466;2022-09-17T07:57:02;14.09;85.18
68098;DHT22;54886;47.036;15.466;2022-09-17T07:59:27;14.07;85.58
68098;DHT22;54886;47.036;15.466;2022-09-17T08:01:53;14.04;85.45
68098;DHT22;54886;47.036;15.466;2022-09-17T08:04:18;14.06;85.68
68098;DHT22;54886;47.036;15.466;2022-09-17T08:06:44;14.09;85.30
68098;DHT22;54886;47.036;15.466;2022-09-17T08:09:12;14.07;84.86
68098;DHT22;54886;47.036;15.466;2022-09-17T08:11:39;14.06;85.30
68098;DHT22;54886;47.036;15.466;2022-09-17T08:14:05;14.04;85.35
68098;DHT22;54886;47.036;15.466;2022-09-17T08:16:33;14.00;85.39
68098;DHT22;54886;47.036;15.466;2022-09-17T08:18:58;13.99;85.06
68098;DHT22;54886;47.036;15.466;2022-09-17T08:21:24;14.02;85.41
68098;DHT22;54886;47.036;15.466;2022-09-17T08:23:49;13.99;85.22
68098;DHT22;54886;47.036;15.466;2022-09-17T08:26:20;14.02;84.34
68098;DHT22;54886;47.036;15.466;2022-09-17T08:28:51;14.04;84.66
68098;DHT22;54886;47.036;15.466;2022-09-17T08:31:18;14.07;85.14
68098;DHT22;54886;47.036;15.466;2022-09-17T08:33:45;14.07;84.91
68098;DHT22;54886;47.036;15.466;2022-09-17T08:36:13;14.06;84.60
68098;DHT22;54886;47.036;15.466;2022-09-17T08:38:39;14.07;84.61
68098;DHT22;54886;47.036;15.466;2022-09-17T08:43:41;14.04;84.92
68098;DHT22;54886;47.036;15.466;2022-09-17T08:46:11;14.06;84.55
68098;DHT22;54886;47.036;15.466;2022-09-17T08:48:42;14.06;84.39
68098;DHT22;54886;47.036;15.466;2022-09-17T08:54:07;14.00;84.59
68098;DHT22;54886;47.036;15.466;2022-09-17T08:56:36;14.00;84.18
68098;DHT22;54886;47.036;15.466;2022-09-17T08:59:23;14.03;83.81
68098;DHT22;54886;47.036;15.466;2022-09-17T09:05:18;14.04;84.22
68098;DHT22;54886;47.036;15.466;2022-09-17T09:07:52;14.04;84.10
68098;DHT22;54886;47.036;15.466;2022-09-17T09:10:22;14.07;83.88
68098;DHT22;54886;47.036;15.466;2022-09-17T09:12:51;14.03;84.26
68098;DHT22;54886;47.036;15.466;2022-09-17T09:15:27;14.04;84.24
68098;DHT22;54886;47.036;15.466;2022-09-17T09:18:00;14.03;84.86
68098;DHT22;54886;47.036;15.466;2022-09-17T09:20:34;14.03;84.14
68098;DHT22;54886;47.036;15.466;2022-09-17T09:23:19;13.99;84.83
68098;DHT22;54886;47.036;15.466;2022-09-17T09:26:19;13.99;84.87
68098;DHT22;54886;47.036;15.466;2022-09-17T09:34:32;14.07;84.10
68098;DHT22;54886;47.036;15.466;2022-09-17T09:37:30;14.12;83.01
68098;DHT22;54886;47.036;15.466;2022-09-17T09:42:38;14.09;82.85
68098;DHT22;54886;47.036;15.466;2022-09-17T09:45:25;14.12;83.63
68098;DHT22;54886;47.036;15.466;2022-09-17T09:56:34;14.24;83.21
68098;DHT22;54886;47.036;15.466;2022-09-17T09:59:06;14.18;82.62
68098;DHT22;54886;47.036;15.466;2022-09-17T10:01:32;14.23;82.47
68098;DHT22;54886;47.036;15.466;2022-09-17T10:04:00;14.24;82.82
68098;DHT22;54886;47.036;15.466;2022-09-17T10:06:28;14.28;81.61
68098;DHT22;54886;47.036;15.466;2022-09-17T10:11:22;14.34;82.64
68098;DHT22;54886;47.036;15.466;2022-09-17T10:13:48;14.32;82.41
68098;DHT22;54886;47.036;15.466;2022-09-17T10:16:25;14.32;82.00
68098;DHT22;54886;47.036;15.466;2022-09-17T10:21:37;14.37;82.69
68098;DHT22;54886;47.036;15.466;2022-09-17T10:24:27;14.40;82.11
68098;DHT22;54886;47.036;15.466;2022-09-17T10:27:16;14.42;82.78
68098;DHT22;54886;47.036;15.466;2022-09-17T10:29:43;14.46;83.23
68098;DHT22;54886;47.036;15.466;2022-09-17T10:32:18;14.51;83.02
68098;DHT22;54886;47.036;15.466;2022-09-17T10:35:03;14.54;82.99
68098;DHT22;54886;47.036;15.466;2022-09-17T10:37:46;14.55;82.25
68098;DHT22;54886;47.036;15.466;2022-09-17T10:40:30;14.52;80.76
68098;DHT22;54886;47.036;15.466;2022-09-17T10:43:17;14.54;80.34
68098;DHT22;54886;47.036;15.466;2022-09-17T10:45:45;14.54;79.96
68098;DHT22;54886;47.036;15.466;2022-09-17T10:48:20;14.46;75.31
68098;DHT22;54886;47.036;15.466;2022-09-17T10:50:51;14.46;77.95
68098;DHT22;54886;47.036;15.466;2022-09-17T10:53:18;14.48;79.38
68098;DHT22;54886;47.036;15.466;2022-09-17T10:59:05;14.49;79.54
68098;DHT22;54886;47.036;15.466;2022-09-17T11:01:43;14.46;75.92
68098;DHT22;54886;47.036;15.466;2022-09-17T11:04:35;14.46;76.65
68098;DHT22;54886;47.036;15.466;2022-09-17T11:13:23;14.35;72.05
68098;DHT22;54886;47.036;15.466;2022-09-17T11:32:42;14.40;72.40
68098;DHT22;54886;47.036;15.466;2022-09-17T11:35:14;14.38;68.89
68098;DHT22;54886;47.036;15.466;2022-09-17T11:37:44;14.35;65.91
68098;DHT22;54886;47.036;15.466;2022-09-17T11:45:59;14.24;70.28
68098;DHT22;54886;47.036;15.466;2022-09-17T11:48:34;14.30;72.56
68098;DHT22;54886;47.036;15.466;2022-09-17T11:51:06;14.23;70.10
68098;DHT22;54886;47.036;15.466;2022-09-17T11:53:43;14.28;72.06
68098;DHT22;54886;47.036;15.466;2022-09-17T11:56:16;14.25;70.68
68098;DHT22;54886;47.036;15.466;2022-09-17T11:58:57;14.25;69.99
68098;DHT22;54886;47.036;15.466;2022-09-17T12:07:16;14.30;71.51
68098;DHT22;54886;47.036;15.466;2022-09-17T12:09:49;14.28;70.82
68098;DHT22;54886;47.036;15.466;2022-09-17T12:12:20;14.30;71.41
68098;DHT22;54886;47.036;15.466;2022-09-17T12:14:53;14.32;71.50
68098;DHT22;54886;47.036;15.466;2022-09-17T12:17:27;14.31;69.68
68098;DHT22;54886;47.036;15.466;2022-09-17T12:19:58;14.25;67.55
68098;DHT22;54886;47.036;15.466;2022-09-17T12:22:29;14.27;72.25
68098;DHT22;54886;47.036;15.466;2022-09-17T12:24:57;14.28;72.87
68098;DHT22;54886;47.036;15.466;2022-09-17T12:27:37;14.31;73.36
68098;DHT22;54886;47.036;15.466;2022-09-17T12:46:03;14.17;62.63
68098;DHT22;54886;47.036;15.466;2022-09-17T12:59:29;14.06;64.73
68098;DHT22;54886;47.036;15.466;2022-09-17T13:02:24;14.06;63.81
68098;DHT22;54886;47.036;15.466;2022-09-17T13:05:16;14.02;63.10
68098;DHT22;54886;47.036;15.466;2022-09-17T13:19:38;13.95;66.22
68098;DHT22;54886;47.036;15.466;2022-09-17T13:24:21;13.93;66.45
68098;DHT22;54886;47.036;15.466;2022-09-17T13:26:50;13.93;63.22
68098;DHT22;54886;47.036;15.466;2022-09-17T13:40:04;13.83;61.48
68098;DHT22;54886;47.036;15.466;2022-09-17T13:42:45;13.79;61.66
68098;DHT22;54886;47.036;15.466;2022-09-17T13:45:14;13.80;59.19
68098;DHT22;54886;47.036;15.466;2022-09-17T13:47:53;13.79;61.79
68098;DHT22;54886;47.036;15.466;2022-09-17T13:52:56;13.73;62.62
68098;DHT22;54886;47.036;15.466;2022-09-17T13:55:37;13.78;67.32
68098;DHT22;54886;47.036;15.466;2022-09-17T13:58:06;13.76;69.56
68098;DHT22;54886;47.036;15.466;2022-09-17T14:00:53;13.79;69.54
68098;DHT22;54886;47.036;15.466;2022-09-17T14:11:37;13.72;63.14
68098;DHT22;54886;47.036;15.466;2022-09-17T14:21:42;13.69;69.39
68098;DHT22;54886;47.036;15.466;2022-09-17T14:24:27;13.75;69.61
68098;DHT22;54886;47.036;15.466;2022-09-17T14:31:57;13.80;70.99
68098;DHT22;54886;47.036;15.466;2022-09-17T14:34:24;13.80;70.54
68098;DHT22;54886;47.036;15.466;2022-09-17T14:36:51;13.83;70.96
68098;DHT22;54886;47.036;15.466;2022-09-17T14:39:23;13.83;71.52
68098;DHT22;54886;47.036;15.466;2022-09-17T14:41:51;13.83;69.76
68098;DHT22;54886;47.036;15.466;2022-09-17T14:44:19;13.86;71.15
68098;DHT22;54886;47.036;15.466;2022-09-17T14:46:55;13.86;71.27
68098;DHT22;54886;47.036;15.466;2022-09-17T14:49:34;13.82;69.53
68098;DHT22;54886;47.036;15.466;2022-09-17T14:52:01;13.80;64.26
68098;DHT22;54886;47.036;15.466;2022-09-17T14:54:28;13.80;70.03
68098;DHT22;54886;47.036;15.466;2022-09-17T15:01:51;13.85;70.65
68098;DHT22;54886;47.036;15.466;2022-09-17T15:04:21;13.85;70.92
68098;DHT22;54886;47.036;15.466;2022-09-17T15:06:47;13.83;71.25
68098;DHT22;54886;47.036;15.466;2022-09-17T15:09:22;13.82;70.93
68098;DHT22;54886;47.036;15.466;2022-09-17T15:11:51;13.85;71.43
68098;DHT22;54886;47.036;15.466;2022-09-17T15:14:20;13.85;71.58
68098;DHT22;54886;47.036;15.466;2022-09-17T15:16:48;13.83;71.99
68098;DHT22;54886;47.036;15.466;2022-09-17T15:19:29;13.82;72.26
68098;DHT22;54886;47.036;15.466;2022-09-17T15:21:58;13.85;72.37
68098;DHT22;54886;47.036;15.466;2022-09-17T15:25:28;13.82;73.65
68098;DHT22;54886;47.036;15.466;2022-09-17T15:27:30;13.85;73.66
68098;DHT22;54886;47.036;15.466;2022-09-17T15:30:02;13.86;73.80
68098;DHT22;54886;47.036;15.466;2022-09-17T15:32:28;13.86;74.28
68098;DHT22;54886;47.036;15.466;2022-09-17T15:37:55;13.85;74.64
68098;DHT22;54886;47.036;15.466;2022-09-17T15:42:54;13.87;74.84
68098;DHT22;54886;47.036;15.466;2022-09-17T15:45:27;13.87;75.76
68098;DHT22;54886;47.036;15.466;2022-09-17T15:48:00;13.86;75.82
68098;DHT22;54886;47.036;15.466;2022-09-17T15:50:26;13.87;75.95
68098;DHT22;54886;47.036;15.466;2022-09-17T15:58:00;13.85;77.43
68098;DHT22;54886;47.036;15.466;2022-09-17T16:00:26;13.90;77.26
68098;DHT22;54886;47.036;15.466;2022-09-17T16:02:52;13.90;76.91
68098;DHT22;54886;47.036;15.466;2022-09-17T16:07:50;13.89;78.28
68098;DHT22;54886;47.036;15.466;2022-09-17T16:10:16;13.90;77.10
68098;DHT22;54886;47.036;15.466;2022-09-17T16:12:42;13.87;76.40
68098;DHT22;54886;47.036;15.466;2022-09-17T16:15:08;13.85;77.85
68098;DHT22;54886;47.036;15.466;2022-09-17T16:17:46;13.86;77.01
68098;DHT22;54886;47.036;15.466;2022-09-17T16:20:23;13.87;76.78
68098;DHT22;54886;47.036;15.466;2022-09-17T16:22:50;13.90;76.21
68098;DHT22;54886;47.036;15.466;2022-09-17T16:25:18;13.90;76.57
68098;DHT22;54886;47.036;15.466;2022-09-17T16:30:19;13.89;77.15
68098;DHT22;54886;47.036;15.466;2022-09-17T16:32:45;13.91;76.51
68098;DHT22;54886;47.036;15.466;2022-09-17T16:35:16;13.90;75.77
68098;DHT22;54886;47.036;15.466;2022-09-17T16:37:42;13.91;75.73
68098;DHT22;54886;47.036;15.466;2022-09-17T16:40:11;13.91;76.11
68098;DHT22;54886;47.036;15.466;2022-09-17T16:42:37;13.83;71.68
68098;DHT22;54886;47.036;15.466;2022-09-17T16:45:05;13.83;71.20
68098;DHT22;54886;47.036;15.466;2022-09-17T16:47:40;13.78;71.74
68098;DHT22;54886;47.036;15.466;2022-09-17T16:50:14;13.75;70.79
68098;DHT22;54886;47.036;15.466;2022-09-17T16:52:40;13.76;64.98
68098;DHT22;54886;47.036;15.466;2022-09-17T16:55:07;13.70;64.28
68098;DHT22;54886;47.036;15.466;2022-09-17T16:57:33;13.66;62.89
68098;DHT22;54886;47.036;15.466;2022-09-17T16:59:58;13.63;65.12
68098;DHT22;54886;47.036;15.466;2022-09-17T17:02:24;13.61;62.60
68098;DHT22;54886;47.036;15.466;2022-09-17T17:04:50;13.61;63.11
68098;DHT22;54886;47.036;15.466;2022-09-17T17:07:15;13.59;63.67
68098;DHT22;54886;47.036;15.466;2022-09-17T17:09:40;13.52;61.03
68098;DHT22;54886;47.036;15.466;2022-09-17T17:12:06;13.51;61.04
68098;DHT22;54886;47.036;15.466;2022-09-17T17:14:32;13.48;61.04
68098;DHT22;54886;47.036;15.466;2022-09-17T17:16:58;13.44;61.22
68098;DHT22;54886;47.036;15.466;2022-09-17T17:19:24;13.37;61.06
68098;DHT22;54886;47.036;15.466;2022-09-17T17:21:50;13.34;60.34
68098;DHT22;54886;47.036;15.466;2022-09-17T17:24:17;13.30;59.08
68098;DHT22;54886;47.036;15.466;2022-09-17T17:26:42;13.30;62.46
68098;DHT22;54886;47.036;15.466;2022-09-17T17:29:08;13.28;64.10
68098;DHT22;54886;47.036;15.466;2022-09-17T17:31:34;13.28;66.68
68098;DHT22;54886;47.036;15.466;2022-09-17T17:33:59;13.27;67.54
68098;DHT22;54886;47.036;15.466;2022-09-17T17:36:25;13.24;68.39
68098;DHT22;54886;47.036;15.466;2022-09-17T17:38:58;13.20;69.46
68098;DHT22;54886;47.036;15.466;2022-09-17T17:41:23;13.20;69.23
68098;DHT22;54886;47.036;15.466;2022-09-17T17:43:54;13.15;70.32
68098;DHT22;54886;47.036;15.466;2022-09-17T17:46:20;13.15;70.67
68098;DHT22;54886;47.036;15.466;2022-09-17T17:48:45;13.14;70.66
68098;DHT22;54886;47.036;15.466;2022-09-17T17:51:11;13.11;70.93
68098;DHT22;54886;47.036;15.466;2022-09-17T17:53:40;13.07;70.88
68098;DHT22;54886;47.036;15.466;2022-09-17T17:56:07;13.00;69.38
68098;DHT22;54886;47.036;15.466;2022-09-17T17:58:34;12.97;66.77
68098;DHT22;54886;47.036;15.466;2022-09-17T18:01:11;12.96;64.58
68098;DHT22;54886;47.036;15.466;2022-09-17T18:03:37;12.99;67.90
68098;DHT22;54886;47.036;15.466;2022-09-17T18:06:04;12.95;65.17
68098;DHT22;54886;47.036;15.466;2022-09-17T18:08:30;12.87;62.34
68098;DHT22;54886;47.036;15.466;2022-09-17T18:10:57;12.89;65.30
68098;DHT22;54886;47.036;15.466;2022-09-17T18:13:28;12.90;68.50
68098;DHT22;54886;47.036;15.466;2022-09-17T18:15:59;12.90;68.02
68098;DHT22;54886;47.036;15.466;2022-09-17T18:18:30;12.85;67.64
68098;DHT22;54886;47.036;15.466;2022-09-17T18:20:59;12.82;69.05
68098;DHT22;54886;47.036;15.466;2022-09-17T18:23:25;12.82;69.33
68098;DHT22;54886;47.036;15.466;2022-09-17T18:25:56;12.79;70.11
68098;DHT22;54886;47.036;15.466;2022-09-17T18:28:22;12.79;70.48
68098;DHT22;54886;47.036;15.466;2022-09-17T18:30:48;12.80;70.96
68098;DHT22;54886;47.036;15.466;2022-09-17T18:33:22;12.78;70.97
68098;DHT22;54886;47.036;15.466;2022-09-17T18:35:49;12.68;71.32
68098;DHT22;54886;47.036;15.466;2022-09-17T18:38:16;12.65;71.65
68098;DHT22;54886;47.036;15.466;2022-09-17T18:40:42;12.69;71.90
68098;DHT22;54886;47.036;15.466;2022-09-17T18:43:08;12.68;72.05
68098;DHT22;54886;47.036;15.466;2022-09-17T18:45:34;12.63;72.12
68098;DHT22;54886;47.036;15.466;2022-09-17T18:48:01;12.60;72.49
68098;DHT22;54886;47.036;15.466;2022-09-17T18:50:27;12.62;72.56
68098;DHT22;54886;47.036;15.466;2022-09-17T18:52:52;12.58;72.51
68098;DHT22;54886;47.036;15.466;2022-09-17T18:55:18;12.51;73.35
68098;DHT22;54886;47.036;15.466;2022-09-17T18:57:43;12.51;72.56
68098;DHT22;54886;47.036;15.466;2022-09-17T19:00:09;12.52;73.16